createdAt,value
2018-05-01T00:01:15.624Z,12.50
2018-05-01T00:03:46.664Z,12.50
2018-05-01T00:06:16.763Z,12.50
2018-05-01T00:08:47.491Z,12.50
2018-05-01T00:11:17.542Z,12.70
2018-05-01T00:13:47.993Z,12.70
2018-05-01T00:16:18.060Z,12.60
2018-05-01T00:18:48.435Z,12.60
2018-05-01T00:21:18.826Z,12.60
2018-05-01T00:23:48.898Z,12.70
2018-05-01T00:26:19.227Z,12.70
2018-05-01T00:28:49.291Z,12.70
2018-05-01T00:31:20.358Z,12.70
2018-05-01T00:33:50.399Z,12.70
2018-05-01T00:36:20.631Z,12.80
2018-05-01T00:38:51.128Z,12.70
2018-05-01T00:41:21.262Z,12.70
2018-05-01T00:43:51.359Z,12.80
2018-05-01T00:46:21.531Z,12.90
2018-05-01T00:48:51.902Z,12.80
2018-05-01T00:51:22.335Z,12.80
2018-05-01T00:53:52.457Z,12.90
2018-05-01T00:56:22.515Z,12.90
2018-05-01T00:58:52.703Z,13.00
2018-05-01T01:01:23.041Z,12.80
2018-05-01T01:03:53.495Z,12.80
2018-05-01T01:06:24.398Z,12.70
2018-05-01T01:08:55.646Z,12.60
2018-05-01T01:11:25.738Z,12.60
2018-05-01T01:13:55.770Z,12.60
2018-05-01T01:16:26.369Z,12.50
2018-05-01T01:18:56.894Z,11.90
2018-05-01T01:21:27.434Z,11.40
2018-05-01T01:23:58.286Z,10.90
2018-05-01T01:26:29.325Z,10.90
2018-05-01T01:28:59.379Z,10.90
2018-05-01T01:31:29.749Z,10.90
2018-05-01T01:34:00.168Z,10.70
2018-05-01T01:36:29.023Z,10.70
2018-05-01T01:38:57.570Z,10.60
2018-05-01T01:41:26.405Z,10.70
2018-05-01T01:43:55.978Z,10.60
2018-05-01T01:46:24.511Z,10.70
2018-05-01T01:48:54.056Z,10.70
2018-05-01T01:51:22.967Z,10.70
2018-05-01T01:53:51.480Z,10.60
2018-05-01T01:56:20.548Z,10.60
2018-05-01T01:58:49.382Z,10.70
2018-05-01T02:01:18.028Z,10.70
2018-05-01T02:03:46.951Z,10.90
2018-05-01T02:06:15.594Z,10.80
2018-05-01T02:08:44.535Z,10.70
2018-05-01T02:11:14.346Z,10.60
2018-05-01T02:13:43.453Z,10.60
2018-05-01T02:16:12.023Z,10.70
2018-05-01T02:18:40.816Z,10.80
2018-05-01T02:21:09.648Z,10.70
2018-05-01T02:23:38.280Z,10.60
2018-05-01T02:26:06.910Z,10.60
2018-05-01T02:28:35.747Z,10.50
2018-05-01T02:31:04.623Z,10.50
2018-05-01T02:33:33.932Z,10.50
2018-05-01T02:36:03.498Z,10.60
2018-05-01T02:38:32.995Z,10.60
2018-05-01T02:41:01.844Z,10.70
2018-05-01T02:43:30.408Z,10.60
2018-05-01T02:45:59.724Z,10.50
2018-05-01T02:48:28.670Z,10.50
2018-05-01T02:50:57.516Z,10.70
2018-05-01T02:53:26.079Z,10.50
2018-05-01T02:55:55.697Z,10.50
2018-05-01T02:58:24.225Z,10.50
2018-05-01T03:00:53.011Z,10.40
2018-05-01T03:03:21.834Z,10.30
2018-05-01T03:05:50.476Z,10.30
2018-05-01T03:08:19.011Z,10.30
2018-05-01T03:10:48.644Z,10.20
2018-05-01T03:13:17.327Z,10.20
2018-05-01T03:15:45.901Z,10.10
2018-05-01T03:18:14.429Z,10.10
2018-05-01T03:20:42.937Z,10.00
2018-05-01T03:23:12.570Z,10.00
2018-05-01T03:25:41.127Z,10.00
2018-05-01T03:28:10.545Z,10.00
2018-05-01T03:30:39.354Z,10.00
2018-05-01T03:33:07.921Z,10.00
2018-05-01T03:35:36.423Z,9.90
2018-05-01T03:38:04.942Z,9.90
2018-05-01T03:40:36.268Z,10.10
2018-05-01T03:43:05.060Z,9.90
2018-05-01T03:45:34.371Z,10.00
2018-05-01T03:48:03.168Z,10.00
2018-05-01T03:50:31.966Z,10.00
2018-05-01T03:53:01.336Z,9.80
2018-05-01T03:55:30.137Z,9.80
2018-05-01T03:57:59.264Z,9.70
2018-05-01T04:00:27.826Z,9.70
2018-05-01T04:02:56.656Z,9.60
2018-05-01T04:05:25.883Z,9.60
2018-05-01T04:07:54.403Z,9.60
2018-05-01T04:10:23.292Z,9.50
2018-05-01T04:12:52.807Z,9.20
2018-05-01T04:15:21.340Z,9.20
2018-05-01T04:17:49.927Z,9.00
2018-05-01T04:20:18.498Z,8.80
2018-05-01T04:22:47.351Z,8.70
2018-05-01T04:25:15.862Z,8.60
2018-05-01T04:27:44.396Z,8.50
2018-05-01T04:30:13.551Z,8.50
2018-05-01T04:32:43.071Z,8.50
2018-05-01T04:35:11.948Z,8.50
2018-05-01T04:37:40.885Z,8.50
2018-05-01T04:40:09.496Z,8.50
2018-05-01T04:42:38.024Z,8.60
2018-05-01T04:45:06.779Z,8.70
2018-05-01T04:47:36.254Z,8.80
2018-05-01T04:50:05.491Z,8.70
2018-05-01T04:52:34.798Z,8.70
2018-05-01T04:55:03.936Z,8.70
2018-05-01T04:57:33.251Z,8.80
2018-05-01T05:00:01.848Z,8.80
2018-05-01T05:02:30.962Z,8.60
2018-05-01T05:04:59.491Z,8.50
2018-05-01T05:07:28.312Z,8.50
2018-05-01T05:09:56.980Z,8.60
2018-05-01T05:12:25.599Z,8.50
2018-05-01T05:14:55.202Z,8.50
2018-05-01T05:17:24.002Z,8.50
2018-05-01T05:19:52.538Z,8.50
2018-05-01T05:22:21.334Z,8.50
2018-05-01T05:24:49.868Z,8.60
2018-05-01T05:27:18.875Z,8.50
2018-05-01T05:29:48.642Z,8.40
2018-05-01T05:32:17.227Z,8.40
2018-05-01T05:34:46.568Z,8.40
2018-05-01T05:37:16.172Z,8.40
2018-05-01T05:39:44.735Z,8.40
2018-05-01T05:42:13.283Z,8.20
2018-05-01T05:44:42.115Z,8.30
2018-05-01T05:47:10.728Z,8.40
2018-05-01T05:49:39.526Z,8.00
2018-05-01T05:52:08.302Z,8.00
2018-05-01T05:54:37.389Z,8.00
2018-05-01T05:57:06.987Z,8.00
2018-05-01T05:59:36.306Z,7.90
2018-05-01T06:02:04.876Z,7.90
2018-05-01T06:04:33.797Z,8.00
2018-05-01T06:07:02.325Z,8.10
2018-05-01T06:09:31.786Z,8.20
2018-05-01T06:12:01.551Z,8.20
2018-05-01T06:14:30.111Z,8.30
2018-05-01T06:16:59.700Z,8.10
2018-05-01T06:19:29.265Z,8.00
2018-05-01T06:21:57.857Z,7.90
2018-05-01T06:24:27.115Z,7.90
2018-05-01T06:26:56.010Z,7.90
2018-05-01T06:29:25.476Z,8.00
2018-05-01T06:31:54.016Z,8.00
2018-05-01T06:34:22.873Z,8.10
2018-05-01T06:36:52.276Z,7.80
2018-05-01T06:39:20.758Z,7.80
2018-05-01T06:41:49.982Z,7.80
2018-05-01T06:44:18.611Z,7.90
2018-05-01T06:46:47.352Z,7.90
2018-05-01T06:49:16.038Z,7.50
2018-05-01T06:51:44.902Z,7.50
2018-05-01T06:54:13.716Z,7.60
2018-05-01T06:56:42.246Z,7.30
2018-05-01T06:59:10.814Z,7.50
2018-05-01T07:01:39.779Z,7.60
2018-05-01T07:04:08.512Z,7.60
2018-05-01T07:06:37.192Z,7.80
2018-05-01T07:09:06.543Z,7.80
2018-05-01T07:11:35.111Z,7.60
2018-05-01T07:14:04.641Z,7.50
2018-05-01T07:16:33.438Z,7.50
2018-05-01T07:19:03.272Z,7.50
2018-05-01T07:21:32.182Z,7.50
2018-05-01T07:24:01.836Z,7.10
2018-05-01T07:26:30.351Z,7.10
2018-05-01T07:28:58.961Z,7.20
2018-05-01T07:31:28.243Z,7.20
2018-05-01T07:33:57.079Z,7.20
2018-05-01T07:36:25.595Z,7.20
2018-05-01T07:38:54.765Z,7.10
2018-05-01T07:41:23.329Z,7.10
2018-05-01T07:43:52.123Z,7.10
2018-05-01T07:46:20.792Z,7.20
2018-05-01T07:48:49.360Z,7.20
2018-05-01T07:51:19.149Z,7.10
2018-05-01T07:53:48.509Z,7.20
2018-05-01T07:56:17.090Z,7.20
2018-05-01T07:58:45.870Z,7.20
2018-05-01T08:01:14.465Z,7.00
2018-05-01T08:03:45.928Z,7.10
2018-05-01T08:06:15.298Z,7.00
2018-05-01T08:08:43.955Z,7.00
2018-05-01T08:11:13.296Z,7.10
2018-05-01T08:13:41.935Z,7.00
2018-05-01T08:16:11.791Z,7.20
2018-05-01T08:18:40.395Z,7.10
2018-05-01T08:21:09.400Z,7.20
2018-05-01T08:23:38.583Z,7.30
2018-05-01T08:26:07.406Z,7.30
2018-05-01T08:28:36.239Z,7.30
2018-05-01T08:31:05.115Z,7.10
2018-05-01T08:33:33.994Z,7.10
2018-05-01T08:36:03.351Z,7.10
2018-05-01T08:38:32.475Z,7.10
2018-05-01T08:41:01.160Z,7.10
2018-05-01T08:43:29.711Z,7.10
2018-05-01T08:45:58.619Z,7.20
2018-05-01T08:48:27.980Z,7.10
2018-05-01T08:50:56.516Z,7.20
2018-05-01T08:53:25.634Z,7.20
2018-05-01T08:55:54.183Z,7.00
2018-05-01T08:58:22.836Z,7.00
2018-05-01T09:00:51.902Z,7.10
2018-05-01T09:03:20.735Z,7.00
2018-05-01T09:05:49.328Z,7.00
2018-05-01T09:08:18.205Z,7.00
2018-05-01T09:10:46.799Z,7.00
2018-05-01T09:13:16.388Z,7.20
2018-05-01T09:15:45.280Z,7.20
2018-05-01T09:18:13.899Z,7.20
2018-05-01T09:20:42.473Z,7.20
2018-05-01T09:23:11.352Z,7.10
2018-05-01T09:25:40.896Z,7.10
2018-05-01T09:28:09.733Z,7.10
2018-05-01T09:30:39.579Z,7.10
2018-05-01T09:33:08.938Z,7.20
2018-05-01T09:35:37.726Z,7.10
2018-05-01T09:38:06.616Z,7.30
2018-05-01T09:40:35.310Z,7.10
2018-05-01T09:43:03.907Z,7.20
2018-05-01T09:45:33.632Z,7.20
2018-05-01T09:48:03.080Z,7.20
2018-05-01T09:50:31.603Z,7.20
2018-05-01T09:53:02.003Z,7.10
2018-05-01T09:55:32.177Z,7.00
2018-05-01T09:58:02.545Z,7.10
2018-05-01T10:00:34.766Z,7.20
2018-05-01T10:03:04.935Z,7.20
2018-05-01T10:05:36.074Z,7.30
2018-05-01T10:08:06.166Z,7.30
2018-05-01T10:10:36.219Z,7.30
2018-05-01T10:13:06.575Z,7.30
2018-05-01T10:15:38.171Z,7.50
2018-05-01T10:18:08.355Z,7.40
2018-05-01T10:20:38.751Z,7.40
2018-05-01T10:23:08.948Z,7.40
2018-05-01T10:25:39.172Z,7.30
2018-05-01T10:28:09.807Z,7.40
2018-05-01T10:30:40.110Z,7.40
2018-05-01T10:33:10.376Z,7.40
2018-05-01T10:35:41.493Z,7.50
2018-05-01T10:38:11.595Z,7.50
2018-05-01T10:40:41.963Z,7.60
2018-05-01T10:43:13.083Z,7.60
2018-05-01T10:45:43.194Z,7.60
2018-05-01T10:48:13.579Z,7.70
2018-05-01T10:50:44.029Z,7.80
2018-05-01T10:53:15.170Z,7.70
2018-05-01T10:55:46.349Z,7.60
2018-05-01T10:58:17.005Z,7.80
2018-05-01T11:00:47.391Z,7.70
2018-05-01T11:03:17.759Z,7.70
2018-05-01T11:05:48.388Z,7.70
2018-05-01T11:08:18.546Z,7.70
2018-05-01T11:10:48.620Z,7.80
2018-05-01T11:13:19.087Z,7.90
2018-05-01T11:15:50.195Z,8.00
2018-05-01T11:18:20.334Z,8.10
2018-05-01T11:20:50.716Z,8.10
2018-05-01T11:23:21.565Z,8.10
2018-05-01T11:25:52.830Z,8.10
2018-05-01T11:28:22.980Z,8.10
2018-05-01T11:30:53.915Z,8.20
2018-05-01T11:33:24.358Z,8.20
2018-05-01T11:35:55.398Z,8.20
2018-05-01T11:38:26.635Z,8.40
2018-05-01T11:40:57.436Z,8.40
2018-05-01T11:43:28.651Z,8.40
2018-05-01T11:45:59.500Z,8.40
2018-05-01T11:48:29.869Z,8.40
2018-05-01T11:51:00.394Z,8.30
2018-05-01T11:53:30.481Z,8.40
2018-05-01T11:56:00.863Z,8.50
2018-05-01T11:58:31.702Z,8.60
2018-05-01T12:01:01.869Z,8.60
2018-05-01T12:03:32.241Z,8.60
2018-05-01T12:06:02.393Z,8.30
2018-05-01T12:08:32.452Z,8.50
2018-05-01T12:11:02.766Z,8.60
2018-05-01T12:13:33.199Z,8.50
2018-05-01T12:16:03.305Z,8.50
2018-05-01T12:18:33.683Z,8.50
2018-05-01T12:21:03.799Z,8.40
2018-05-01T12:23:34.203Z,8.40
2018-05-01T12:26:05.160Z,8.40
2018-05-01T12:28:37.038Z,8.40
2018-05-01T12:31:07.132Z,8.40
2018-05-01T12:33:38.400Z,8.40
2018-05-01T12:36:09.537Z,8.40
2018-05-01T12:38:39.931Z,8.40
2018-05-01T12:41:10.135Z,8.50
2018-05-01T12:43:40.616Z,8.50
2018-05-01T12:46:11.059Z,8.40
2018-05-01T12:48:41.143Z,8.40
2018-05-01T12:51:12.041Z,8.20
2018-05-01T12:53:42.426Z,8.20
2018-05-01T12:56:12.794Z,8.30
2018-05-01T12:58:42.898Z,8.00
2018-05-01T13:01:13.290Z,8.00
2018-05-01T13:03:43.428Z,8.10
2018-05-01T13:06:13.678Z,8.20
2018-05-01T13:08:44.096Z,8.20
2018-05-01T13:11:14.177Z,8.40
2018-05-01T13:13:44.326Z,8.50
2018-05-01T13:16:14.676Z,8.40
2018-05-01T13:18:45.340Z,8.40
2018-05-01T13:21:15.451Z,8.40
2018-05-01T13:23:46.586Z,8.50
2018-05-01T13:26:18.370Z,8.60
2018-05-01T13:28:48.699Z,8.50
2018-05-01T13:31:19.145Z,8.50
2018-05-01T13:33:49.269Z,8.60
2018-05-01T13:36:20.071Z,8.50
2018-05-01T13:38:50.823Z,8.50
2018-05-01T13:41:21.002Z,8.50
2018-05-01T13:43:56.374Z,8.50
2018-05-01T13:46:26.468Z,8.50
2018-05-01T13:48:56.665Z,8.50
2018-05-01T13:51:26.992Z,8.40
2018-05-01T13:53:57.332Z,8.40
2018-05-01T13:56:27.884Z,8.40
2018-05-01T13:58:58.247Z,8.40
2018-05-01T14:01:28.449Z,8.40
2018-05-01T14:03:58.611Z,8.40
2018-05-01T14:06:29.064Z,8.40
2018-05-01T14:08:59.880Z,8.10
2018-05-01T14:11:30.880Z,8.00
2018-05-01T14:14:01.284Z,8.00
2018-05-01T14:16:31.657Z,8.00
2018-05-01T14:19:01.748Z,7.90
2018-05-01T14:21:32.063Z,8.00
2018-05-01T14:24:02.188Z,7.90
2018-05-01T14:26:32.276Z,8.00
2018-05-01T14:29:02.735Z,8.10
2018-05-01T14:31:32.860Z,8.10
2018-05-01T14:34:03.081Z,8.10
2018-05-01T14:36:33.459Z,7.90
2018-05-01T14:39:04.629Z,8.00
2018-05-01T14:41:38.354Z,7.90
2018-05-01T14:44:08.972Z,7.80
2018-05-01T14:46:39.364Z,7.80
2018-05-01T14:49:09.522Z,7.80
2018-05-01T14:51:39.965Z,7.80
2018-05-01T14:54:10.445Z,7.90
2018-05-01T14:56:40.583Z,7.90
2018-05-01T14:59:12.007Z,7.70
2018-05-01T15:01:42.579Z,7.80
2018-05-01T15:04:12.707Z,7.70
2018-05-01T15:06:43.811Z,7.60
2018-05-01T15:09:15.565Z,7.70
2018-05-01T15:11:45.916Z,7.70
2018-05-01T15:14:16.330Z,7.60
2018-05-01T15:16:46.383Z,7.60
2018-05-01T15:19:16.896Z,7.50
2018-05-01T15:21:47.043Z,7.60
2018-05-01T15:24:17.915Z,7.80
2018-05-01T15:26:48.389Z,7.80
2018-05-01T15:29:19.434Z,8.10
2018-05-01T15:31:49.589Z,8.10
2018-05-01T15:34:19.941Z,8.20
2018-05-01T15:36:50.011Z,8.40
2018-05-01T15:39:21.223Z,8.30
2018-05-01T15:41:51.771Z,8.30
2018-05-01T15:44:22.756Z,8.60
2018-05-01T15:46:52.861Z,8.60
2018-05-01T15:49:23.250Z,8.60
2018-05-01T15:51:53.326Z,8.40
2018-05-01T15:54:23.390Z,8.50
2018-05-01T15:56:54.796Z,8.50
2018-05-01T15:59:24.995Z,8.50
2018-05-01T16:01:55.083Z,8.50
2018-05-01T16:04:26.291Z,8.50
2018-05-01T16:06:56.483Z,8.50
2018-05-01T16:09:26.886Z,8.50
2018-05-01T16:11:57.296Z,8.50
2018-05-01T16:14:27.502Z,8.50
2018-05-01T16:16:57.649Z,8.50
2018-05-01T16:19:28.187Z,8.50
2018-05-01T16:21:58.464Z,8.50
2018-05-01T16:24:29.557Z,8.60
2018-05-01T16:27:00.031Z,8.50
2018-05-01T16:29:30.947Z,8.60
2018-05-01T16:32:01.040Z,8.50
2018-05-01T16:34:31.664Z,8.60
2018-05-01T16:37:02.090Z,8.60
2018-05-01T16:39:32.485Z,8.70
2018-05-01T16:42:03.661Z,8.70
2018-05-01T16:44:33.983Z,8.70
2018-05-01T16:47:04.148Z,8.70
2018-05-01T16:49:34.571Z,8.70
2018-05-01T16:52:05.307Z,8.90
2018-05-01T16:54:35.496Z,8.80
2018-05-01T16:57:06.070Z,8.80
2018-05-01T16:59:37.005Z,9.00
2018-05-01T17:02:08.747Z,9.00
2018-05-01T17:04:39.132Z,9.00
2018-05-01T17:07:09.507Z,9.10
2018-05-01T17:09:40.874Z,9.00
2018-05-01T17:12:11.358Z,9.00
2018-05-01T17:14:41.525Z,9.10
2018-05-01T17:17:12.589Z,9.10
2018-05-01T17:19:43.299Z,9.10
2018-05-01T17:22:13.489Z,9.20
2018-05-01T17:24:44.152Z,9.30
2018-05-01T17:27:14.599Z,9.30
2018-05-01T17:29:44.716Z,9.40
2018-05-01T17:32:15.578Z,9.40
2018-05-01T17:34:47.961Z,9.50
2018-05-01T17:37:18.148Z,9.40
2018-05-01T17:39:48.556Z,9.60
2018-05-01T17:42:18.712Z,9.70
2018-05-01T17:44:48.896Z,10.20
2018-05-01T17:47:19.301Z,10.80
2018-05-01T17:49:50.229Z,11.60
2018-05-01T17:52:20.446Z,11.50
2018-05-01T17:54:51.175Z,11.60
2018-05-01T17:57:21.576Z,11.40
2018-05-01T17:59:52.801Z,11.20
2018-05-01T18:02:22.918Z,11.10
2018-05-01T18:04:53.355Z,11.10
2018-05-01T18:07:24.000Z,11.10
2018-05-01T18:09:54.685Z,10.70
2018-05-01T18:12:25.374Z,10.40
2018-05-01T18:14:57.679Z,10.10
2018-05-01T18:17:28.928Z,10.30
2018-05-01T18:19:59.442Z,10.60
2018-05-01T18:22:30.428Z,10.80
2018-05-01T18:25:01.690Z,10.80
2018-05-01T18:27:32.244Z,10.80
2018-05-01T18:30:03.108Z,10.80
2018-05-01T18:32:33.679Z,10.50
2018-05-01T18:35:04.906Z,10.40
2018-05-01T18:37:35.301Z,10.10
2018-05-01T18:40:05.811Z,9.90
2018-05-01T18:42:36.045Z,9.70
2018-05-01T18:45:06.545Z,9.60
2018-05-01T18:47:37.194Z,9.50
2018-05-01T18:50:11.245Z,9.20
2018-05-01T18:52:42.719Z,9.10
2018-05-01T18:55:13.235Z,9.10
2018-05-01T18:57:43.514Z,9.00
2018-05-01T19:00:14.826Z,8.80
2018-05-01T19:02:45.344Z,8.90
2018-05-01T19:05:15.602Z,8.80
2018-05-01T19:07:47.482Z,8.50
2018-05-01T19:10:18.335Z,8.50
2018-05-01T19:12:48.879Z,8.40
2018-05-01T19:15:20.189Z,8.40
2018-05-01T19:17:50.738Z,8.40
2018-05-01T19:20:21.473Z,8.30
2018-05-01T19:22:52.885Z,8.30
2018-05-01T19:25:23.364Z,8.20
2018-05-01T19:27:53.803Z,8.20
2018-05-01T19:30:24.028Z,8.20
2018-05-01T19:32:54.565Z,7.90
2018-05-01T19:35:25.535Z,8.00
2018-05-01T19:37:55.950Z,8.00
2018-05-01T19:40:26.518Z,7.90
2018-05-01T19:42:56.846Z,7.90
2018-05-01T19:45:27.855Z,7.80
2018-05-01T19:47:58.376Z,7.80
2018-05-01T19:50:28.603Z,7.90
2018-05-01T19:52:59.054Z,7.90
2018-05-01T19:55:29.583Z,7.80
2018-05-01T19:57:59.878Z,7.80
2018-05-01T20:00:31.242Z,7.70
2018-05-01T20:03:02.936Z,7.70
2018-05-01T20:05:33.196Z,7.70
2018-05-01T20:08:04.217Z,7.60
2018-05-01T20:10:35.513Z,7.50
2018-05-01T20:13:05.735Z,7.50
2018-05-01T20:15:37.222Z,7.40
2018-05-01T20:18:07.400Z,7.30
2018-05-01T20:20:37.940Z,7.30
2018-05-01T20:23:08.532Z,7.10
2018-05-01T20:25:38.708Z,7.10
2018-05-01T20:28:09.298Z,7.00
2018-05-01T20:30:40.337Z,7.00
2018-05-01T20:33:10.577Z,6.80
2018-05-01T20:35:41.027Z,6.80
2018-05-01T20:38:11.440Z,6.70
2018-05-01T20:40:41.977Z,6.60
2018-05-01T20:43:12.445Z,6.50
2018-05-01T20:45:42.609Z,6.50
2018-05-01T20:48:12.729Z,6.40
2018-05-01T20:50:43.430Z,6.40
2018-05-01T20:53:13.948Z,6.30
2018-05-01T20:55:44.137Z,6.10
2018-05-01T20:58:14.545Z,5.90
2018-05-01T21:00:44.741Z,5.80
2018-05-01T21:03:14.894Z,5.80
2018-05-01T21:05:46.149Z,5.70
2018-05-01T21:08:16.538Z,5.70
2018-05-01T21:10:47.102Z,5.80
2018-05-01T21:13:18.301Z,5.80
2018-05-01T21:15:48.457Z,5.80
2018-05-01T21:18:19.701Z,6.00
2018-05-01T21:20:49.878Z,6.00
2018-05-01T21:23:20.333Z,5.90
2018-05-01T21:25:50.730Z,6.00
2018-05-01T21:28:20.866Z,6.10
2018-05-01T21:30:51.084Z,6.10
2018-05-01T21:33:21.519Z,6.10
2018-05-01T21:35:51.691Z,6.10
2018-05-01T21:38:22.624Z,6.10
2018-05-01T21:40:52.857Z,6.10
2018-05-01T21:43:24.053Z,6.10
2018-05-01T21:45:54.209Z,6.10
2018-05-01T21:48:25.134Z,6.20
2018-05-01T21:50:56.324Z,6.10
2018-05-01T21:53:26.739Z,6.10
2018-05-01T21:55:56.840Z,6.20
2018-05-01T21:58:27.236Z,6.30
2018-05-01T22:00:57.591Z,6.20
2018-05-01T22:03:27.824Z,6.20
2018-05-01T22:05:58.387Z,6.30
2018-05-01T22:08:28.556Z,6.20
2018-05-01T22:10:58.687Z,6.20
2018-05-01T22:13:29.128Z,6.20
2018-05-01T22:15:59.479Z,6.20
2018-05-01T22:18:29.593Z,6.10
2018-05-01T22:20:59.791Z,6.00
2018-05-01T22:23:29.974Z,6.10
2018-05-01T22:26:01.203Z,6.00
2018-05-01T22:28:31.427Z,6.00
2018-05-01T22:31:02.407Z,6.00
2018-05-01T22:33:32.788Z,6.00
2018-05-01T22:36:03.097Z,5.90
2018-05-01T22:38:33.648Z,5.90
2018-05-01T22:41:04.793Z,5.80
2018-05-01T22:43:35.693Z,5.80
2018-05-01T22:46:05.943Z,5.80
2018-05-01T22:48:37.103Z,5.80
2018-05-01T22:51:07.516Z,5.70
2018-05-01T22:53:37.896Z,5.80
2018-05-01T22:56:08.014Z,5.80
2018-05-01T22:58:38.474Z,5.80
2018-05-01T23:01:08.899Z,5.80
2018-05-01T23:03:39.048Z,5.70
2018-05-01T23:06:09.483Z,5.70
2018-05-01T23:08:39.874Z,5.70
2018-05-01T23:11:10.822Z,5.60
2018-05-01T23:13:41.322Z,5.60
2018-05-01T23:16:12.136Z,5.60
2018-05-01T23:18:42.454Z,5.60
2018-05-01T23:21:12.752Z,5.40
2018-05-01T23:23:42.891Z,5.30
2018-05-01T23:26:13.242Z,5.20
2018-05-01T23:28:44.385Z,5.00
2018-05-01T23:31:14.526Z,5.00
2018-05-01T23:33:45.191Z,5.00
2018-05-01T23:36:15.720Z,4.90
2018-05-01T23:38:45.842Z,5.00
2018-05-01T23:41:15.956Z,5.00
2018-05-01T23:43:46.283Z,4.90
2018-05-01T23:46:16.351Z,4.90
2018-05-01T23:48:46.424Z,4.80
2018-05-01T23:51:16.449Z,4.80
2018-05-01T23:53:46.818Z,4.80
2018-05-01T23:56:16.914Z,4.70
2018-05-01T23:58:46.922Z,4.60
